Time;durP1;ratioP1;P1;durP2;ratioP2;P2;SDS_P1;SDS_P2;PMS_P1;PMS_P2;Temp;Humidity;BMP_temperature;BMP_pressure;BME280_temperature;BME280_humidity;BME280_pressure;Samples;Min_cycle;Max_cycle;Signal;HPM_P1;HPM_P2
2023/07/29 04:31:05;;;;;;;7.20;2.40;;;19.30;86.20;;;;;;5556120;23;20048;-77
2023/07/29 04:33:31;;;;;;;7.85;2.88;;;19.30;86.20;;;;;;4897999;29;20115;-77
2023/07/29 04:35:57;;;;;;;6.38;2.33;;;19.30;86.00;;;;;;4902203;29;20021;-78
2023/07/29 04:38:27;;;;;;;10.05;3.00;;;19.40;86.00;;;;;;4905685;29;20066;-78
2023/07/29 04:40:53;;;;;;;7.18;2.67;;;19.30;86.00;;;;;;4918722;29;20376;-77
2023/07/29 04:43:18;;;;;;;5.78;2.40;;;19.30;86.00;;;;;;4919460;29;20036;-78
2023/07/29 04:45:45;;;;;;;8.18;2.33;;;19.40;86.00;;;;;;4916725;29;20104;-77
2023/07/29 04:48:11;;;;;;;8.45;2.50;;;19.40;86.00;;;;;;4883005;29;20037;-77
2023/07/29 04:50:36;;;;;;;4.72;2.17;;;19.40;85.90;;;;;;4884170;29;20501;-77
2023/07/29 04:53:02;;;;;;;5.82;2.35;;;19.40;86.00;;;;;;4892591;29;20080;-78
2023/07/29 04:55:27;;;;;;;5.13;2.40;;;19.50;85.90;;;;;;4885057;29;20021;-77
2023/07/29 04:57:53;;;;;;;6.13;2.22;;;19.50;85.90;;;;;;4884398;29;20471;-78
2023/07/29 05:00:19;;;;;;;5.65;2.58;;;19.50;85.80;;;;;;4884244;29;20033;-77
2023/07/29 05:02:44;;;;;;;5.50;2.20;;;19.50;85.90;;;;;;4900338;29;20028;-77
2023/07/29 05:05:10;;;;;;;6.38;2.50;;;19.50;86.00;;;;;;4910332;29;20072;-77
2023/07/29 05:07:36;;;;;;;6.63;2.30;;;19.50;86.00;;;;;;4916021;29;20115;-77
2023/07/29 05:10:01;;;;;;;7.50;2.20;;;19.50;85.90;;;;;;4901673;29;20033;-77
2023/07/29 05:12:29;;;;;;;5.57;2.22;;;19.50;86.20;;;;;;4905222;29;20514;-77
2023/07/29 05:14:54;;;;;;;5.13;2.25;;;19.50;86.20;;;;;;4882609;29;20092;-77
2023/07/29 05:17:21;;;;;;;5.13;1.90;;;19.50;86.20;;;;;;4884268;29;20532;-77
2023/07/29 05:19:46;;;;;;;6.40;2.35;;;19.50;86.30;;;;;;4887851;29;20021;-77
2023/07/29 05:22:12;;;;;;;4.82;1.98;;;19.50;86.20;;;;;;4884188;29;20041;-77
2023/07/29 05:24:38;;;;;;;5.28;1.80;;;19.50;86.20;;;;;;4883953;29;20405;-77
2023/07/29 05:27:03;;;;;;;4.53;2.28;;;19.50;86.20;;;;;;4882801;29;20052;-77
2023/07/29 05:29:29;;;;;;;5.72;2.35;;;19.50;86.10;;;;;;4883838;29;20037;-78
2023/07/29 05:31:55;;;;;;;6.65;2.10;;;19.60;86.20;;;;;;4883860;29;20057;-77
2023/07/29 05:34:20;;;;;;;4.80;2.20;;;19.60;86.10;;;;;;4883709;29;20405;-78
2023/07/29 05:36:46;;;;;;;5.43;1.90;;;19.50;86.00;;;;;;4906914;29;20038;-77
2023/07/29 05:39:12;;;;;;;5.63;2.17;;;19.50;86.00;;;;;;4921133;29;20468;-78
2023/07/29 05:41:37;;;;;;;6.00;2.05;;;19.60;86.10;;;;;;4921303;29;20087;-77
2023/07/29 05:44:03;;;;;;;6.13;2.00;;;19.70;85.90;;;;;;4896260;29;20088;-77
2023/07/29 05:46:29;;;;;;;5.15;1.73;;;19.70;85.80;;;;;;4884085;29;20025;-77
2023/07/29 05:48:54;;;;;;;8.68;1.65;;;19.80;85.60;;;;;;4883466;29;20089;-77
2023/07/29 05:51:20;;;;;;;5.00;1.88;;;19.70;85.60;;;;;;4866958;29;20033;-77
2023/07/29 05:53:46;;;;;;;6.47;2.50;;;19.70;85.70;;;;;;4883392;29;20031;-78
2023/07/29 05:56:11;;;;;;;4.18;1.85;;;19.70;85.70;;;;;;4885329;29;20043;-78
2023/07/29 05:58:37;;;;;;;4.28;1.30;;;19.80;85.50;;;;;;4902109;29;20052;-77
2023/07/29 06:01:03;;;;;;;4.10;1.63;;;19.80;85.30;;;;;;4901905;29;20041;-77
2023/07/29 06:03:28;;;;;;;3.80;1.60;;;19.80;85.10;;;;;;4896283;29;20040;-77
2023/07/29 06:05:54;;;;;;;4.20;1.50;;;19.80;85.20;;;;;;4892243;29;20036;-77
2023/07/29 06:08:20;;;;;;;4.55;1.60;;;19.80;85.10;;;;;;4901743;29;20154;-77
2023/07/29 06:10:45;;;;;;;3.17;1.50;;;19.90;85.10;;;;;;4889665;29;20043;-77
2023/07/29 06:13:11;;;;;;;5.80;1.60;;;19.90;85.20;;;;;;4887216;29;20208;-78
2023/07/29 06:15:37;;;;;;;3.72;1.40;;;20.00;85.10;;;;;;4901906;29;20025;-78
2023/07/29 06:18:02;;;;;;;3.63;1.40;;;20.00;84.90;;;;;;4891261;29;20040;-80
2023/07/29 06:20:28;;;;;;;3.50;1.15;;;20.10;84.80;;;;;;4900558;29;20033;-80
2023/07/29 06:22:54;;;;;;;3.15;1.30;;;20.10;84.60;;;;;;4901630;29;20040;-78
2023/07/29 06:25:20;;;;;;;2.70;1.17;;;20.20;84.40;;;;;;4884405;29;20032;-78
2023/07/29 06:27:45;;;;;;;3.42;1.58;;;20.30;84.20;;;;;;4889745;29;20096;-81
2023/07/29 06:30:11;;;;;;;4.00;1.55;;;20.30;83.80;;;;;;4888774;29;20093;-82
2023/07/29 06:32:36;;;;;;;3.65;1.63;;;20.40;83.60;;;;;;4884463;29;20500;-80
2023/07/29 06:35:02;;;;;;;2.70;1.33;;;20.30;83.50;;;;;;4900996;29;20029;-82
2023/07/29 06:37:28;;;;;;;3.92;1.23;;;20.40;83.30;;;;;;4901657;29;20024;-81
2023/07/29 06:39:53;;;;;;;3.30;1.45;;;20.40;83.10;;;;;;4893764;29;20033;-83
2023/07/29 06:42:19;;;;;;;3.97;1.50;;;20.30;83.20;;;;;;4883336;29;20033;-80
2023/07/29 06:44:48;;;;;;;3.40;1.48;;;20.20;83.10;;;;;;4882619;29;20073;-81
2023/07/29 06:47:13;;;;;;;5.63;1.83;;;20.10;83.20;;;;;;4891994;29;20092;-82
2023/07/29 06:49:39;;;;;;;3.08;1.30;;;20.00;83.60;;;;;;4885677;29;20036;-81
2023/07/29 06:52:06;;;;;;;6.70;1.60;;;20.10;83.70;;;;;;4882640;29;20140;-82
2023/07/29 06:54:31;;;;;;;3.15;1.35;;;20.10;83.40;;;;;;4882552;29;20057;-82
2023/07/29 06:56:59;;;;;;;5.00;1.50;;;20.30;83.30;;;;;;4892251;29;20024;-82
2023/07/29 06:59:25;;;;;;;3.85;1.35;;;20.60;83.10;;;;;;4883836;29;20377;-83
2023/07/29 07:01:51;;;;;;;3.22;1.40;;;20.70;82.60;;;;;;4884550;29;20115;-81
2023/07/29 07:04:17;;;;;;;2.90;1.23;;;20.80;82.40;;;;;;4880466;29;20064;-84
2023/07/29 07:06:42;;;;;;;4.28;1.65;;;20.70;82.70;;;;;;4896344;29;20029;-82
2023/07/29 07:09:08;;;;;;;3.55;1.50;;;20.60;82.00;;;;;;4897802;29;20025;-82
2023/07/29 07:11:34;;;;;;;4.38;1.58;;;20.60;82.10;;;;;;4904884;29;20440;-82
2023/07/29 07:14:00;;;;;;;3.72;1.70;;;20.70;81.70;;;;;;4885612;29;20025;-82
2023/07/29 07:16:25;;;;;;;4.65;1.38;;;20.80;81.50;;;;;;4880132;29;20025;-82
2023/07/29 07:18:51;;;;;;;2.90;1.40;;;20.80;81.60;;;;;;4892606;29;20028;-82
2023/07/29 07:21:17;;;;;;;3.55;1.45;;;20.80;81.00;;;;;;4883779;29;20033;-81
2023/07/29 07:23:43;;;;;;;4.88;1.33;;;21.10;80.80;;;;;;4882806;29;20032;-81
2023/07/29 07:26:08;;;;;;;3.20;1.33;;;21.20;80.50;;;;;;4900775;29;20024;-80
2023/07/29 07:28:34;;;;;;;3.78;1.30;;;21.60;79.50;;;;;;4897041;29;20029;-78
2023/07/29 07:30:59;;;;;;;2.58;1.15;;;22.00;78.70;;;;;;4900092;29;20045;-82
2023/07/29 07:33:25;;;;;;;2.80;1.23;;;21.90;77.90;;;;;;4898222;29;20024;-79
2023/07/29 07:35:51;;;;;;;4.35;1.23;;;21.70;78.10;;;;;;4899658;29;20032;-81
2023/07/29 07:38:16;;;;;;;3.03;1.35;;;21.80;77.10;;;;;;4900071;29;20034;-90
2023/07/29 07:40:42;;;;;;;5.35;1.90;;;21.60;77.90;;;;;;4879978;29;20040;-81
2023/07/29 07:43:07;;;;;;;4.40;1.70;;;23.40;75.50;;;;;;4881465;29;20408;-82
2023/07/29 07:45:33;;;;;;;4.38;1.40;;;24.00;70.90;;;;;;4899245;29;20035;-81
2023/07/29 07:47:59;;;;;;;4.15;1.85;;;23.50;71.20;;;;;;4895372;29;20028;-79
2023/07/29 07:50:24;;;;;;;6.20;1.58;;;23.70;71.10;;;;;;4898215;29;20177;-78
2023/07/29 07:52:50;;;;;;;3.05;1.30;;;25.80;64.30;;;;;;4897631;29;20043;-79
2023/07/29 07:55:16;;;;;;;4.93;2.20;;;24.70;64.80;;;;;;4891157;29;20040;-79
2023/07/29 07:57:41;;;;;;;4.43;1.40;;;24.40;66.00;;;;;;4893860;29;20595;-78
2023/07/29 08:00:07;;;;;;;4.78;2.25;;;24.20;66.50;;;;;;4898605;29;20596;-78
2023/07/29 08:02:33;;;;;;;3.92;1.30;;;25.90;63.20;;;;;;4879928;29;20036;-78
2023/07/29 08:04:59;;;;;;;4.50;1.60;;;26.30;60.50;;;;;;4879000;29;20393;-78
2023/07/29 08:07:24;;;;;;;3.42;1.70;;;25.20;62.10;;;;;;4898778;29;20536;-78
2023/07/29 08:09:50;;;;;;;2.83;1.38;;;24.70;63.90;;;;;;4896684;29;20075;-78
2023/07/29 08:12:16;;;;;;;4.53;1.73;;;25.90;62.10;;;;;;4881479;29;20040;-78
2023/07/29 08:14:41;;;;;;;5.45;2.08;;;25.30;63.40;;;;;;4892321;29;20037;-78
2023/07/29 08:17:07;;;;;;;4.35;1.80;;;25.20;61.90;;;;;;4891457;29;20061;-78
2023/07/29 08:19:34;;;;;;;4.93;1.52;;;24.80;62.40;;;;;;4897644;29;20494;-78
2023/07/29 08:22:02;;;;;;;3.58;1.50;;;24.30;64.20;;;;;;4898678;29;20060;-78
2023/07/29 08:24:28;;;;;;;4.53;1.80;;;25.60;61.90;;;;;;4877478;29;20035;-78
2023/07/29 08:26:54;;;;;;;6.38;1.88;;;26.70;59.10;;;;;;4884929;29;20037;-78
2023/07/29 08:29:19;;;;;;;4.22;1.60;;;26.70;57.80;;;;;;4892477;29;20035;-78
2023/07/29 08:31:45;;;;;;;3.95;1.67;;;26.90;57.50;;;;;;4885968;29;20443;-84
2023/07/29 08:34:10;;;;;;;5.00;2.10;;;26.10;58.20;;;;;;4887006;29;20503;-89
2023/07/29 08:36:36;;;;;;;4.93;1.90;;;26.30;59.10;;;;;;4881636;29;20029;-78
2023/07/29 08:39:09;;;;;;;4.25;1.90;;;28.60;55.60;;;;;;4879629;29;21519;-87
2023/07/29 08:41:43;;;;;;;3.72;1.70;;;30.30;48.60;;;;;;4885525;29;20017;-78
2023/07/29 08:44:20;;;;;;;4.03;1.77;;;31.40;45.80;;;;;;4876700;29;20504;-80
2023/07/29 08:46:46;;;;;;;4.15;1.75;;;30.70;46.10;;;;;;4896338;29;20903;-79
2023/07/29 08:49:18;;;;;;;4.22;2.35;;;29.10;48.20;;;;;;4897608;29;20044;-80
2023/07/29 08:51:46;;;;;;;5.07;2.20;;;29.00;51.20;;;;;;4899433;29;20025;-86
2023/07/29 08:54:13;;;;;;;5.70;2.47;;;28.20;51.70;;;;;;4898149;29;20606;-80
2023/07/29 08:56:44;;;;;;;5.03;2.03;;;29.10;51.30;;;;;;4899967;29;20037;-80
2023/07/29 08:59:10;;;;;;;3.83;1.80;;;30.60;48.20;;;;;;4901380;29;20156;-79
2023/07/29 09:01:41;;;;;;;3.75;1.90;;;30.90;46.50;;;;;;4902148;29;20040;-78
2023/07/29 09:04:06;;;;;;;5.70;2.20;;;29.90;47.40;;;;;;4894834;29;20021;-80
2023/07/29 09:06:33;;;;;;;5.22;1.75;;;28.60;49.20;;;;;;4897113;29;20032;-79
2023/07/29 09:08:59;;;;;;;5.13;1.80;;;28.40;51.00;;;;;;4895299;29;20018;-78
2023/07/29 09:11:25;;;;;;;3.42;1.70;;;28.40;49.30;;;;;;4906829;29;20040;-79
2023/07/29 09:13:52;;;;;;;3.63;1.77;;;28.40;49.10;;;;;;4900921;29;20043;-78
2023/07/29 09:16:19;;;;;;;5.10;2.00;;;28.50;48.10;;;;;;4883507;29;20040;-78
2023/07/29 09:18:50;;;;;;;3.35;1.40;;;28.70;48.60;;;;;;4898170;29;20138;-78
2023/07/29 09:21:17;;;;;;;3.75;1.60;;;29.10;48.10;;;;;;4884225;29;20063;-76
2023/07/29 09:23:44;;;;;;;3.63;1.55;;;29.20;45.70;;;;;;4897988;29;20033;-78
2023/07/29 09:26:10;;;;;;;4.03;3.33;;;29.60;46.10;;;;;;4870386;29;20373;-77
2023/07/29 09:28:37;;;;;;;3.90;1.80;;;29.90;44.90;;;;;;4901545;29;20160;-78
2023/07/29 09:31:03;;;;;;;2.92;1.88;;;30.90;44.40;;;;;;4880636;29;20603;-77
2023/07/29 09:33:34;;;;;;;4.57;2.17;;;31.30;42.70;;;;;;4890391;29;20108;-78
2023/07/29 09:36:00;;;;;;;4.60;2.28;;;31.80;42.30;;;;;;4885165;29;20118;-89
2023/07/29 09:38:29;;;;;;;4.00;1.88;;;32.80;40.80;;;;;;4902193;29;20032;-78
2023/07/29 09:40:57;;;;;;;2.90;1.60;;;33.50;39.50;;;;;;4885752;29;20037;-77
2023/07/29 09:43:29;;;;;;;5.10;3.55;;;32.90;39.90;;;;;;4892394;29;20024;-77
2023/07/29 09:45:55;;;;;;;4.63;3.03;;;33.00;39.40;;;;;;4901275;29;20036;-80
2023/07/29 09:48:23;;;;;;;6.53;2.17;;;33.50;39.10;;;;;;4899196;29;20028;-77
2023/07/29 09:50:49;;;;;;;5.18;2.30;;;34.00;38.70;;;;;;4901775;29;20040;-78
2023/07/29 09:53:15;;;;;;;3.80;2.00;;;33.60;37.10;;;;;;4901888;29;20182;-77
2023/07/29 09:55:48;;;;;;;5.72;4.03;;;33.50;36.60;;;;;;4883335;29;20064;-77
2023/07/29 09:58:14;;;;;;;5.60;2.30;;;33.50;36.10;;;;;;4883378;29;20473;-76
2023/07/29 10:00:40;;;;;;;4.15;2.20;;;33.70;37.00;;;;;;4885475;29;20033;-76
2023/07/29 10:03:06;;;;;;;4.13;3.30;;;33.60;36.30;;;;;;4894746;29;20774;-77
2023/07/29 10:05:34;;;;;;;6.28;2.50;;;33.90;35.40;;;;;;4899570;29;20033;-80
2023/07/29 10:08:01;;;;;;;5.93;2.42;;;34.10;35.50;;;;;;4900818;29;20369;-79
2023/07/29 10:10:27;;;;;;;9.90;9.20;;;34.40;35.10;;;;;;4904739;29;20838;-77
2023/07/29 10:12:54;;;;;;;5.55;2.15;;;34.40;33.50;;;;;;4902411;29;20556;-76
2023/07/29 10:15:20;;;;;;;4.93;3.08;;;34.10;35.30;;;;;;4876526;29;20084;-77
2023/07/29 10:17:46;;;;;;;6.53;3.25;;;33.80;34.20;;;;;;4895499;29;20032;-77
2023/07/29 10:20:12;;;;;;;5.05;2.35;;;33.70;35.50;;;;;;4867472;29;20184;-80
2023/07/29 10:22:40;;;;;;;5.30;3.88;;;33.80;35.40;;;;;;4901432;29;20089;-76
2023/07/29 10:25:17;;;;;;;4.10;2.40;;;33.70;35.40;;;;;;4898921;29;20601;-77
2023/07/29 10:27:47;;;;;;;4.30;2.10;;;33.60;35.40;;;;;;4884060;29;20029;-76
2023/07/29 10:30:13;;;;;;;5.70;2.35;;;33.80;36.00;;;;;;4900783;29;20040;-77
2023/07/29 10:32:43;;;;;;;4.90;2.20;;;33.80;34.70;;;;;;4893137;29;20048;-77
2023/07/29 10:35:10;;;;;;;5.10;2.10;;;33.60;35.90;;;;;;4901324;29;20062;-77
2023/07/29 10:37:36;;;;;;;3.63;1.42;;;33.10;37.30;;;;;;4897085;29;20135;-76
2023/07/29 10:40:07;;;;;;;5.40;2.13;;;32.90;37.50;;;;;;4897373;29;20041;-76
2023/07/29 10:42:32;;;;;;;4.85;2.08;;;31.80;37.20;;;;;;4881429;29;20111;-76
2023/07/29 10:44:58;;;;;;;4.72;2.10;;;31.20;39.60;;;;;;4882270;29;20069;-76
2023/07/29 10:47:26;;;;;;;4.15;1.90;;;30.80;41.00;;;;;;4887058;29;20032;-76
2023/07/29 10:49:54;;;;;;;15.23;2.95;;;30.30;40.90;;;;;;4896454;29;20052;-76
2023/07/29 10:52:39;;;;;;;4.85;2.03;;;30.00;42.20;;;;;;4882464;29;20029;-76
2023/07/29 10:55:26;;;;;;;5.30;1.88;;;29.80;42.60;;;;;;4882176;29;20040;-76
2023/07/29 10:58:03;;;;;;;5.22;1.90;;;29.60;43.30;;;;;;4893960;29;20035;-78
2023/07/29 11:00:31;;;;;;;3.97;1.83;;;29.50;42.70;;;;;;4878889;29;20033;-75
2023/07/29 11:03:03;;;;;;;5.55;1.85;;;29.30;43.20;;;;;;4906316;29;20033;-75
2023/07/29 11:05:43;;;;;;;5.43;1.65;;;29.30;44.70;;;;;;4879461;29;20071;-73
2023/07/29 11:08:29;;;;;;;4.22;1.90;;;28.90;43.50;;;;;;4896409;29;20035;-76
2023/07/29 11:11:01;;;;;;;4.57;2.00;;;28.70;44.20;;;;;;4901917;29;20033;-78
2023/07/29 11:13:28;;;;;;;4.47;1.80;;;28.70;45.40;;;;;;4898422;29;20040;-75
2023/07/29 11:15:56;;;;;;;3.72;1.88;;;28.50;45.10;;;;;;4888872;29;20092;-76
2023/07/29 11:18:21;;;;;;;4.75;2.00;;;28.30;46.20;;;;;;4889336;29;20037;-76
2023/07/29 11:20:48;;;;;;;3.83;1.48;;;28.10;45.70;;;;;;4882362;29;20084;-75
2023/07/29 11:23:15;;;;;;;3.92;1.92;;;28.00;44.80;;;;;;4880606;29;20052;-75
2023/07/29 11:25:41;;;;;;;4.45;1.85;;;28.00;46.60;;;;;;4881066;29;20025;-75
2023/07/29 11:28:07;;;;;;;3.15;1.40;;;28.10;45.80;;;;;;4881989;29;20036;-75
2023/07/29 11:30:33;;;;;;;5.03;1.65;;;27.90;45.40;;;;;;4880263;29;20049;-75
2023/07/29 11:32:59;;;;;;;4.18;1.60;;;28.20;46.40;;;;;;4881788;29;20396;-74
2023/07/29 11:35:25;;;;;;;6.78;1.92;;;28.20;45.30;;;;;;4883378;29;20032;-75
2023/07/29 11:37:52;;;;;;;4.30;1.80;;;28.30;47.60;;;;;;4897839;29;20040;-77
2023/07/29 11:40:22;;;;;;;4.20;1.60;;;28.10;46.30;;;;;;4881721;29;20033;-79
2023/07/29 11:42:51;;;;;;;4.47;1.73;;;28.00;46.80;;;;;;4866586;29;20642;-81
2023/07/29 11:45:18;;;;;;;6.25;2.97;;;28.10;46.20;;;;;;4896799;29;20028;-79
2023/07/29 11:47:45;;;;;;;4.53;2.45;;;28.20;47.90;;;;;;4870601;29;20032;-79
2023/07/29 11:50:15;;;;;;;17.00;7.47;;;28.30;45.90;;;;;;4897360;29;20036;-78
2023/07/29 11:52:45;;;;;;;9.80;4.60;;;28.10;45.80;;;;;;4883669;29;20564;-78
2023/07/29 11:55:13;;;;;;;5.43;2.20;;;27.90;46.30;;;;;;4903359;29;20025;-79
2023/07/29 11:57:39;;;;;;;4.95;1.58;;;28.10;46.20;;;;;;4905259;29;20032;-78
2023/07/29 12:00:07;;;;;;;6.07;1.73;;;28.00;47.10;;;;;;4904335;29;20100;-79
2023/07/29 12:02:35;;;;;;;3.33;1.73;;;28.00;47.20;;;;;;4905529;29;20060;-78
2023/07/29 12:05:03;;;;;;;5.13;1.80;;;28.10;46.90;;;;;;4903584;29;20120;-79
2023/07/29 12:07:29;;;;;;;15.00;5.75;;;28.30;47.60;;;;;;4888389;29;20028;-79
2023/07/29 12:09:55;;;;;;;5.57;1.95;;;28.10;46.30;;;;;;4903457;29;20123;-79
2023/07/29 12:12:22;;;;;;;4.82;1.83;;;28.20;46.00;;;;;;4889251;29;20041;-78
2023/07/29 12:14:48;;;;;;;5.90;1.80;;;28.00;45.50;;;;;;4892514;29;20067;-78
2023/07/29 12:17:14;;;;;;;5.82;1.83;;;28.00;47.00;;;;;;4888395;29;20109;-78
2023/07/29 12:19:41;;;;;;;6.43;1.77;;;28.00;47.00;;;;;;4887496;29;20060;-78
2023/07/29 12:22:09;;;;;;;3.75;1.50;;;27.70;46.80;;;;;;4903492;29;20028;-78
2023/07/29 12:24:37;;;;;;;4.32;1.80;;;27.60;47.60;;;;;;4904160;29;20448;-78
2023/07/29 12:27:03;;;;;;;5.38;1.58;;;27.30;47.40;;;;;;4883161;29;20029;-78
2023/07/29 12:29:29;;;;;;;3.10;1.50;;;27.20;47.60;;;;;;4905500;29;20028;-77
2023/07/29 12:32:04;;;;;;;3.70;1.48;;;27.20;47.50;;;;;;4897619;29;20040;-82
2023/07/29 12:34:30;;;;;;;5.60;2.50;;;27.30;48.90;;;;;;4905837;29;20109;-84
2023/07/29 12:36:58;;;;;;;4.10;2.03;;;27.60;49.20;;;;;;4904909;29;20025;-79
2023/07/29 12:39:29;;;;;;;5.15;1.80;;;27.80;47.50;;;;;;4870002;29;20197;-81
2023/07/29 12:41:57;;;;;;;4.93;2.05;;;27.90;46.50;;;;;;4888148;29;20036;-78
2023/07/29 12:44:24;;;;;;;4.07;1.70;;;27.90;47.40;;;;;;4889246;29;20035;-77
2023/07/29 12:46:49;;;;;;;8.18;4.45;;;27.70;46.40;;;;;;4901269;29;20017;-82
2023/07/29 12:49:15;;;;;;;4.50;1.80;;;27.70;48.10;;;;;;4905994;29;20096;-79
2023/07/29 12:51:41;;;;;;;4.65;1.67;;;27.60;47.20;;;;;;4904614;29;20028;-82
2023/07/29 12:54:07;;;;;;;7.32;3.40;;;27.60;47.30;;;;;;4899916;29;20033;-79
2023/07/29 12:56:33;;;;;;;5.40;2.10;;;27.30;48.30;;;;;;4901381;29;20036;-76
2023/07/29 12:59:00;;;;;;;4.57;1.88;;;27.30;48.90;;;;;;4892435;29;20032;-77
2023/07/29 13:01:26;;;;;;;4.32;2.17;;;27.30;48.00;;;;;;4904041;29;20036;-76
2023/07/29 13:03:52;;;;;;;6.90;1.77;;;27.00;48.30;;;;;;4896450;29;20025;-78
2023/07/29 13:06:18;;;;;;;7.10;1.98;;;26.80;49.50;;;;;;4899312;29;20032;-77
2023/07/29 13:08:45;;;;;;;5.00;1.63;;;26.90;50.40;;;;;;4882197;29;20040;-77
2023/07/29 13:11:10;;;;;;;4.10;1.60;;;26.80;50.30;;;;;;4886257;29;20037;-77
2023/07/29 13:13:36;;;;;;;6.00;1.88;;;26.80;50.10;;;;;;4894076;29;20040;-77
2023/07/29 13:16:02;;;;;;;3.58;1.65;;;26.90;50.00;;;;;;4901964;29;20036;-77
2023/07/29 13:18:28;;;;;;;9.25;3.03;;;26.90;50.00;;;;;;4876368;29;20028;-77
2023/07/29 13:20:54;;;;;;;4.97;2.10;;;26.90;50.40;;;;;;4887719;29;20044;-77
2023/07/29 13:23:20;;;;;;;4.25;1.48;;;27.00;49.60;;;;;;4862506;29;20046;-77
2023/07/29 13:25:45;;;;;;;4.72;1.73;;;27.00;50.10;;;;;;4877648;29;20678;-76
2023/07/29 13:28:14;;;;;;;5.75;1.60;;;26.80;49.70;;;;;;4874343;29;20037;-77
2023/07/29 13:30:40;;;;;;;5.22;1.65;;;26.80;49.50;;;;;;4878662;29;20072;-78
2023/07/29 13:33:07;;;;;;;4.75;1.55;;;26.80;49.70;;;;;;4901861;29;20048;-77
2023/07/29 13:35:33;;;;;;;4.70;1.80;;;26.80;50.10;;;;;;4884688;29;20047;-78
2023/07/29 13:37:59;;;;;;;3.97;1.50;;;27.10;49.30;;;;;;4902482;29;20052;-77
2023/07/29 13:40:24;;;;;;;4.47;1.50;;;27.30;49.00;;;;;;4902449;29;20037;-77
2023/07/29 13:42:50;;;;;;;4.65;1.67;;;27.30;48.60;;;;;;4882407;29;20035;-76
2023/07/29 13:45:16;;;;;;;4.93;1.98;;;27.50;48.50;;;;;;4900493;29;20063;-77
2023/07/29 13:53:15;;;;;;;3.40;1.40;;;27.20;49.00;;;;;;4969406;23;19923;-75
2023/07/29 13:55:41;;;;;;;3.88;1.55;;;27.20;49.80;;;;;;4923202;29;20062;-75
2023/07/29 13:58:07;;;;;;;4.85;1.73;;;27.40;50.80;;;;;;4921007;29;20034;-75
2023/07/29 14:00:33;;;;;;;4.32;1.40;;;27.40;49.50;;;;;;4916405;29;20032;-75
2023/07/29 14:02:58;;;;;;;5.00;1.92;;;27.50;48.90;;;;;;4885664;29;20035;-75
2023/07/29 14:05:24;;;;;;;3.40;1.60;;;27.70;49.40;;;;;;4914421;29;20024;-75
2023/07/29 14:07:50;;;;;;;4.28;1.50;;;27.60;48.40;;;;;;4920902;29;20029;-76
2023/07/29 14:10:15;;;;;;;6.38;1.85;;;27.40;49.40;;;;;;4904071;29;20031;-75
2023/07/29 14:12:41;;;;;;;4.05;1.45;;;27.50;49.40;;;;;;4920706;29;20663;-75
2023/07/29 14:15:07;;;;;;;4.00;1.50;;;27.30;49.00;;;;;;4920133;29;20028;-75
2023/07/29 14:17:33;;;;;;;3.97;1.38;;;27.20;49.60;;;;;;4903120;29;20043;-75
2023/07/29 14:19:58;;;;;;;3.80;1.50;;;26.90;50.60;;;;;;4903397;29;20028;-75
2023/07/29 14:22:24;;;;;;;4.13;1.30;;;26.90;51.10;;;;;;4920626;29;20036;-74
2023/07/29 14:24:50;;;;;;;3.35;1.17;;;27.10;51.50;;;;;;4920692;29;20028;-75
2023/07/29 14:27:16;;;;;;;2.80;1.40;;;27.20;51.00;;;;;;4903654;29;20103;-74
2023/07/29 14:29:42;;;;;;;4.65;1.30;;;27.30;49.90;;;;;;4921141;29;20446;-75
2023/07/29 14:32:08;;;;;;;5.80;1.60;;;27.50;49.70;;;;;;4903400;29;20055;-76
2023/07/29 14:34:33;;;;;;;3.20;1.23;;;27.40;49.90;;;;;;4903653;29;20032;-75
2023/07/29 14:36:59;;;;;;;5.68;1.60;;;27.30;49.60;;;;;;4920314;29;20032;-75
2023/07/29 14:39:25;;;;;;;4.35;1.73;;;27.30;49.20;;;;;;4920625;29;20031;-78
2023/07/29 14:41:50;;;;;;;3.72;1.67;;;27.00;49.30;;;;;;4913138;29;20064;-75
2023/07/29 14:44:16;;;;;;;6.15;1.50;;;26.80;51.20;;;;;;4893157;29;20028;-76
2023/07/29 14:46:41;;;;;;;5.70;1.60;;;26.90;51.70;;;;;;4894698;29;20379;-79
2023/07/29 14:49:07;;;;;;;5.80;2.15;;;27.00;51.80;;;;;;4920475;29;20546;-77
2023/07/29 14:51:33;;;;;;;4.90;2.25;;;26.80;51.90;;;;;;4919728;29;20387;-76
2023/07/29 14:53:59;;;;;;;6.88;1.90;;;26.70;52.50;;;;;;4920403;29;20121;-77
2023/07/29 14:56:25;;;;;;;4.63;1.85;;;26.60;51.70;;;;;;4902740;29;20044;-78
2023/07/29 14:58:51;;;;;;;5.07;2.55;;;26.70;52.00;;;;;;4919944;29;20028;-77
2023/07/29 15:01:16;;;;;;;4.82;1.50;;;26.40;51.80;;;;;;4919753;29;20024;-75
2023/07/29 15:03:42;;;;;;;3.65;1.60;;;26.60;52.20;;;;;;4910013;29;20036;-75
2023/07/29 15:06:07;;;;;;;4.15;1.50;;;26.80;51.00;;;;;;4920022;29;20505;-76
2023/07/29 15:08:33;;;;;;;5.63;1.77;;;27.00;51.00;;;;;;4919712;29;20024;-76
2023/07/29 15:10:59;;;;;;;7.03;1.70;;;27.10;50.90;;;;;;4919192;29;20036;-78
2023/07/29 15:13:24;;;;;;;4.13;1.70;;;26.90;50.70;;;;;;4915017;29;20020;-77
2023/07/29 15:15:50;;;;;;;5.65;1.60;;;26.60;51.50;;;;;;4915565;29;20025;-77
2023/07/29 15:18:16;;;;;;;5.18;2.40;;;26.40;52.00;;;;;;4889211;29;20036;-77
2023/07/29 15:20:42;;;;;;;7.03;1.83;;;26.30;52.70;;;;;;4906413;29;20398;-77
2023/07/29 15:23:07;;;;;;;5.32;1.60;;;26.30;52.20;;;;;;4917346;29;20028;-77
2023/07/29 15:25:33;;;;;;;6.22;1.92;;;26.20;52.50;;;;;;4911800;29;20023;-77
2023/07/29 15:27:59;;;;;;;5.22;1.80;;;26.00;52.70;;;;;;4913076;29;20028;-77
2023/07/29 15:30:24;;;;;;;7.55;2.15;;;25.90;53.20;;;;;;4915580;29;20020;-76
2023/07/29 15:32:50;;;;;;;6.03;1.50;;;25.80;53.70;;;;;;4918690;29;20147;-74
2023/07/29 15:35:15;;;;;;;7.00;2.30;;;25.80;53.00;;;;;;4892551;29;20028;-75
2023/07/29 15:37:41;;;;;;;6.97;2.97;;;25.60;55.30;;;;;;4901998;29;20422;-75
2023/07/29 15:40:07;;;;;;;6.85;2.53;;;25.60;56.50;;;;;;4900501;29;20024;-75
2023/07/29 15:42:33;;;;;;;5.68;2.40;;;25.50;57.20;;;;;;4900141;29;20063;-75
2023/07/29 15:44:59;;;;;;;8.35;2.58;;;25.10;58.60;;;;;;4911565;29;20032;-74
2023/07/29 15:47:24;;;;;;;6.45;2.38;;;24.90;59.40;;;;;;4915987;29;20035;-74
2023/07/29 15:49:50;;;;;;;10.02;2.63;;;24.80;60.00;;;;;;4909989;29;20032;-75
2023/07/29 15:52:16;;;;;;;6.18;2.25;;;24.70;60.30;;;;;;4917464;29;20127;-75
2023/07/29 15:54:42;;;;;;;8.32;2.88;;;24.70;60.30;;;;;;4918746;29;20024;-74
2023/07/29 15:57:09;;;;;;;5.75;2.75;;;24.70;60.40;;;;;;4920644;29;20051;-74
2023/07/29 15:59:35;;;;;;;5.53;2.30;;;24.80;60.60;;;;;;4900948;29;20017;-75
2023/07/29 16:02:01;;;;;;;8.05;2.45;;;24.50;61.00;;;;;;4912382;29;20391;-74
2023/07/29 16:04:26;;;;;;;12.52;2.80;;;24.30;62.00;;;;;;4925382;29;20035;-74
2023/07/29 16:06:52;;;;;;;7.20;3.05;;;24.40;62.60;;;;;;4920008;29;20032;-75
2023/07/29 16:09:21;;;;;;;8.93;2.50;;;24.40;62.90;;;;;;4907394;29;20025;-75
2023/07/29 16:11:47;;;;;;;7.70;3.28;;;24.30;62.80;;;;;;4917311;29;20509;-74
2023/07/29 16:14:14;;;;;;;9.57;2.83;;;24.40;62.80;;;;;;4919968;29;20400;-74
2023/07/29 16:16:39;;;;;;;10.13;2.97;;;24.30;63.20;;;;;;4896500;29;20127;-74
2023/07/29 16:19:06;;;;;;;9.38;3.42;;;24.40;63.60;;;;;;4918520;29;20028;-74
2023/07/29 16:21:31;;;;;;;6.50;2.25;;;24.40;63.70;;;;;;4917394;29;20059;-74
2023/07/29 16:23:57;;;;;;;7.18;2.97;;;24.30;63.80;;;;;;4895693;29;20031;-74
2023/07/29 16:26:23;;;;;;;7.97;2.67;;;24.20;63.90;;;;;;4925953;29;20118;-74
2023/07/29 16:28:48;;;;;;;7.10;2.05;;;23.90;64.50;;;;;;4897843;29;20039;-74
2023/07/29 16:31:14;;;;;;;6.95;2.05;;;23.70;63.80;;;;;;4900153;29;20046;-75
2023/07/29 16:33:40;;;;;;;7.28;2.92;;;23.80;64.00;;;;;;4901351;29;20024;-74
2023/07/29 16:36:06;;;;;;;5.25;2.38;;;23.90;63.90;;;;;;4913226;29;20550;-74
2023/07/29 16:38:31;;;;;;;6.57;2.35;;;24.00;63.90;;;;;;4911986;29;20028;-74
2023/07/29 16:40:57;;;;;;;6.10;2.55;;;23.90;63.90;;;;;;4909778;29;20032;-75
2023/07/29 16:43:23;;;;;;;8.15;2.53;;;23.70;63.90;;;;;;4905823;29;20103;-74
2023/07/29 16:45:48;;;;;;;6.63;2.50;;;23.50;65.00;;;;;;4921008;29;20042;-74
2023/07/29 16:48:14;;;;;;;8.05;2.40;;;23.30;65.10;;;;;;4921301;29;20031;-74
2023/07/29 16:50:39;;;;;;;5.75;1.70;;;23.10;65.80;;;;;;4918865;29;20036;-74
2023/07/29 16:53:05;;;;;;;4.05;1.30;;;23.00;65.40;;;;;;4920939;29;20048;-74
2023/07/29 16:55:31;;;;;;;5.03;1.65;;;23.00;64.90;;;;;;4905378;29;21517;-75
2023/07/29 16:57:56;;;;;;;4.97;1.40;;;23.00;64.60;;;;;;4920385;29;20028;-74
2023/07/29 17:00:22;;;;;;;5.97;1.38;;;22.90;64.10;;;;;;4903886;29;20139;-76
2023/07/29 17:02:47;;;;;;;3.30;1.13;;;22.80;64.50;;;;;;4926893;29;20091;-74
2023/07/29 17:05:13;;;;;;;5.68;1.10;;;22.70;64.70;;;;;;4916929;29;23141;-77
2023/07/29 17:07:39;;;;;;;5.07;1.58;;;22.70;64.70;;;;;;4921599;29;20033;-75
2023/07/29 17:10:05;;;;;;;5.25;1.65;;;22.80;65.00;;;;;;4920341;29;20670;-76
2023/07/29 17:12:32;;;;;;;4.10;1.45;;;22.80;65.60;;;;;;4902020;29;20420;-79
2023/07/29 17:14:57;;;;;;;4.20;1.45;;;22.80;65.30;;;;;;4921352;29;20024;-79
2023/07/29 17:17:23;;;;;;;6.68;1.33;;;22.70;65.50;;;;;;4903870;29;20160;-75